Terminal Aerodrome Forecast
Issued by NWS Brownsville, TX

Home | Current Version | Previous Version | Text Only | Print | Product List | Glossary On
Versions: 1 2 3 4 5 6 7 8 9 10 11 12 13 14 15 16 17 18
531
FTUS44 KBRO 221129
TAFHRL
TAF
KHRL 221129Z 2212/2312 34015KT P6SM SCT014
     FM221400 34015G25KT P6SM BKN025
     FM221700 34020G30KT P6SM FEW030
     FM230000 33006KT P6SM SKC=

USA.gov is the U.S. government's official web portal to all federal, state and local government web resources and services.